Terminal Aerodrome Forecast
Issued by NWS Quad Cities IA IL

Home | Current Version | Previous Version | Text Only | Print | Product List | Glossary On
Versions: 1 2 3 4 5 6 7 8 9 10 11 12 13 14 15 16 17 18 19 20
041
FTUS43 KDVN 250511 AAA
TAFMLI
TAF AMD
KMLI 250511Z 2505/2524 11008KT 6SM BR BKN150
      TEMPO 2505/2509 4SM BR SCT006
     FM251400 18006KT 4SM BR BKN050 PROB30 2518/2521 6SM SHRA BR
      BKN040=

USA.gov is the U.S. government's official web portal to all federal, state and local government web resources and services.